createdAt,value
2018-06-18T00:01:22.547Z,14.6
2018-06-18T00:12:24.549Z,14.5
2018-06-18T00:13:24.611Z,14.6
2018-06-18T00:15:25.013Z,14.5
2018-06-18T00:34:28.348Z,14.6
2018-06-18T00:35:28.533Z,14.5
2018-06-18T00:36:28.717Z,14.6
2018-06-18T00:45:30.377Z,14.7
2018-06-18T01:01:33.132Z,14.9
2018-06-18T01:02:33.326Z,14.7
2018-06-18T01:03:33.514Z,14.9
2018-06-18T01:05:33.861Z,14.7
2018-06-18T01:06:34.060Z,14.9
2018-06-18T01:10:34.724Z,14.7
2018-06-18T01:13:35.256Z,14.9
2018-06-18T01:14:35.494Z,14.7
2018-06-18T01:29:38.068Z,14.6
2018-06-18T01:36:39.370Z,14.5
2018-06-18T01:47:41.297Z,14.4
2018-06-18T01:56:42.922Z,14.3
2018-06-18T02:01:43.745Z,14.1
2018-06-18T02:04:44.363Z,14
2018-06-18T02:08:44.996Z,13.9
2018-06-18T02:10:45.628Z,13.8
2018-06-18T02:13:45.906Z,13.6
2018-06-18T02:14:46.105Z,13.5
2018-06-18T02:17:46.576Z,13.4
2018-06-18T02:19:46.929Z,13.3
2018-06-18T02:21:47.330Z,13.1
2018-06-18T02:22:47.479Z,13
2018-06-18T02:24:47.846Z,12.9
2018-06-18T02:27:48.365Z,12.8
2018-06-18T02:28:48.622Z,12.6
2018-06-18T02:31:49.098Z,12.5
2018-06-18T02:34:49.597Z,12.4
2018-06-18T02:36:49.968Z,12.2
2018-06-18T02:39:50.503Z,12.1
2018-06-18T02:41:50.843Z,12
2018-06-18T02:45:51.608Z,11.9
2018-06-18T02:48:52.115Z,11.8
2018-06-18T02:53:53.015Z,11.6
2018-06-18T02:57:53.740Z,11.5
2018-06-18T03:09:55.900Z,11.4
2018-06-18T03:16:57.092Z,11.3
2018-06-18T03:22:58.279Z,11.4
2018-06-18T03:26:58.913Z,11.5
2018-06-18T03:28:59.281Z,11.6
2018-06-18T03:31:59.792Z,11.8
2018-06-18T03:34:00.208Z,11.9
2018-06-18T03:36:00.892Z,12
2018-06-18T03:39:01.043Z,12.1
2018-06-18T03:41:01.398Z,12.2
2018-06-18T03:43:01.787Z,12.4
2018-06-18T03:46:02.348Z,12.5
2018-06-18T03:47:02.524Z,12.6
2018-06-18T03:49:02.850Z,12.8
2018-06-18T03:50:03.008Z,12.9
2018-06-18T03:51:03.217Z,13
2018-06-18T03:52:03.360Z,13.1
2018-06-18T03:54:03.770Z,13.3
2018-06-18T03:55:03.969Z,13.4
2018-06-18T03:56:04.109Z,13.5
2018-06-18T03:58:04.469Z,13.6
2018-06-18T03:59:04.655Z,13.8
2018-06-18T04:00:04.789Z,13.9
2018-06-18T04:01:04.962Z,14
2018-06-18T04:03:05.317Z,14.1
2018-06-18T04:04:05.543Z,14.3
2018-06-18T04:06:05.847Z,14.4
2018-06-18T04:09:06.382Z,14.5
2018-06-18T04:11:06.795Z,14.6
2018-06-18T04:19:08.156Z,14.7
2018-06-18T04:21:08.665Z,14.9
2018-06-18T04:23:08.935Z,15
2018-06-18T04:25:09.217Z,15.1
2018-06-18T04:26:09.428Z,15.3
2018-06-18T04:27:09.637Z,15.5
2018-06-18T04:28:09.814Z,15.6
2018-06-18T04:29:09.976Z,15.9
2018-06-18T04:30:10.153Z,16
2018-06-18T04:31:10.336Z,16.3
2018-06-18T04:32:10.482Z,16.5
2018-06-18T04:33:10.678Z,16.8
2018-06-18T04:34:10.845Z,16.9
2018-06-18T04:35:10.987Z,17.1
2018-06-18T04:36:11.181Z,17.2
2018-06-18T04:37:11.395Z,17.4
2018-06-18T04:38:11.543Z,17.5
2018-06-18T04:39:11.792Z,17.6
2018-06-18T04:40:11.900Z,17.8
2018-06-18T04:42:12.314Z,17.9
2018-06-18T04:43:12.477Z,18
2018-06-18T04:45:12.865Z,18.1
2018-06-18T05:00:15.586Z,18.3
2018-06-18T05:06:16.605Z,18.4
2018-06-18T05:09:17.201Z,18.5
2018-06-18T05:11:17.510Z,18.6
2018-06-18T05:15:18.248Z,18.8
2018-06-18T05:17:18.598Z,18.9
2018-06-18T05:19:18.962Z,19
2018-06-18T05:21:19.306Z,19.1
2018-06-18T05:24:19.790Z,19.3
2018-06-18T05:28:20.532Z,19.4
2018-06-18T05:30:20.864Z,19.5
2018-06-18T05:35:21.827Z,19.6
2018-06-18T05:41:22.885Z,19.8
2018-06-18T05:42:23.005Z,19.6
2018-06-18T05:46:23.749Z,19.8
2018-06-18T05:53:25.056Z,19.9
2018-06-18T05:56:25.578Z,20
2018-06-18T05:58:25.887Z,20.1
2018-06-18T06:00:26.228Z,20.3
2018-06-18T06:06:27.332Z,20.4
2018-06-18T06:09:27.892Z,20.5
2018-06-18T06:13:28.550Z,20.6
2018-06-18T06:14:28.762Z,20.8
2018-06-18T06:16:29.133Z,20.9
2018-06-18T06:17:29.269Z,21
2018-06-18T06:19:29.615Z,21.1
2018-06-18T06:20:29.811Z,21.2
2018-06-18T06:22:30.263Z,21.4
2018-06-18T06:23:30.345Z,21.5
2018-06-18T06:25:30.730Z,21.8
2018-06-18T06:27:31.072Z,21.9
2018-06-18T06:30:31.552Z,22
2018-06-18T06:32:31.919Z,22.1
2018-06-18T06:34:32.288Z,22.2
2018-06-18T06:36:32.668Z,22.4
2018-06-18T06:38:32.980Z,22.5
2018-06-18T06:41:33.587Z,22.6
2018-06-18T06:42:33.736Z,22.8
2018-06-18T06:44:34.119Z,22.9
2018-06-18T06:45:34.288Z,23
2018-06-18T06:46:34.465Z,23.1
2018-06-18T06:47:34.590Z,23.3
2018-06-18T06:49:34.954Z,23.4
2018-06-18T06:50:35.129Z,23.5
2018-06-18T06:51:35.356Z,23.6
2018-06-18T06:52:35.547Z,23.7
2018-06-18T06:53:35.724Z,23.9
2018-06-18T06:54:35.880Z,24
2018-06-18T06:55:36.018Z,24.1
2018-06-18T06:56:36.201Z,24.4
2018-06-18T06:57:36.406Z,24.5
2018-06-18T06:58:36.588Z,24.6
2018-06-18T06:59:36.811Z,24.7
2018-06-18T07:01:38.395Z,24.9
2018-06-18T07:04:37.634Z,25
2018-06-18T07:10:38.685Z,25.1
2018-06-18T07:11:38.864Z,25.3
2018-06-18T07:12:39.041Z,25.5
2018-06-18T07:13:39.315Z,25.6
2018-06-18T07:14:39.422Z,25.8
2018-06-18T07:15:39.619Z,26
2018-06-18T07:16:39.832Z,26.1
2018-06-18T07:18:40.165Z,26.2
2018-06-18T07:19:40.296Z,26.4
2018-06-18T07:20:40.487Z,26.6
2018-06-18T07:21:40.687Z,26.8
2018-06-18T07:23:41.634Z,26.9
2018-06-18T07:24:41.878Z,27
2018-06-18T07:25:42.003Z,27.1
2018-06-18T07:27:42.410Z,27.2
2018-06-18T07:29:42.790Z,27.1
2018-06-18T07:31:43.122Z,27.2
2018-06-18T07:35:43.761Z,27.4
2018-06-18T07:36:43.933Z,27.5
2018-06-18T07:37:08.209Z,27.6
2018-06-18T07:39:08.425Z,27.8
2018-06-18T07:40:09.361Z,27.9
2018-06-18T07:41:10.438Z,28.1
2018-06-18T07:44:13.393Z,28.3
2018-06-18T07:45:14.386Z,28.4
2018-06-18T07:47:16.339Z,28.6
2018-06-18T07:48:17.394Z,28.7
2018-06-18T07:49:18.379Z,28.9
2018-06-18T07:50:19.370Z,29
2018-06-18T07:51:20.336Z,29.1
2018-06-18T07:52:21.393Z,29.3
2018-06-18T07:56:25.346Z,29.1
2018-06-18T07:58:27.374Z,29
2018-06-18T08:00:29.325Z,28.9
2018-06-18T08:01:30.338Z,28.7
2018-06-18T08:02:31.320Z,28.5
2018-06-18T08:04:33.385Z,29.6
2018-06-18T08:05:34.354Z,30.9
2018-06-18T08:06:35.337Z,32.1
2018-06-18T08:07:35.397Z,33.1
2018-06-18T08:08:35.547Z,33.7
2018-06-18T08:09:35.625Z,34.2
2018-06-18T08:10:35.680Z,35.1
2018-06-18T08:11:35.744Z,35.7
2018-06-18T08:12:36.475Z,36
2018-06-18T08:14:36.006Z,35.9
2018-06-18T08:15:36.121Z,36.4
2018-06-18T08:16:36.168Z,36
2018-06-18T08:17:36.299Z,35.7
2018-06-18T08:18:36.389Z,35.5
2018-06-18T08:19:36.460Z,35.6
2018-06-18T08:20:36.540Z,36.2
2018-06-18T08:21:36.675Z,36.5
2018-06-18T08:22:36.771Z,37.4
2018-06-18T08:23:36.830Z,37.1
2018-06-18T08:24:36.935Z,36.9
2018-06-18T08:25:37.037Z,36.5
2018-06-18T08:26:37.059Z,36.6
2018-06-18T08:27:37.120Z,36.9
2018-06-18T08:28:37.291Z,37.1
2018-06-18T08:29:37.324Z,37.7
2018-06-18T08:30:37.445Z,38.1
2018-06-18T08:31:37.481Z,37.9
2018-06-18T08:32:37.572Z,38
2018-06-18T08:33:37.623Z,37.6
2018-06-18T08:34:37.726Z,36.7
2018-06-18T08:35:37.857Z,36.1
2018-06-18T08:36:37.917Z,35.9
2018-06-18T08:37:38.003Z,35.6
2018-06-18T08:38:38.099Z,35.2
2018-06-18T08:40:38.297Z,35.6
2018-06-18T08:41:38.359Z,35.5
2018-06-18T08:42:38.426Z,35.4
2018-06-18T08:43:38.504Z,35.5
2018-06-18T08:44:38.612Z,35.6
2018-06-18T08:46:38.772Z,35.2
2018-06-18T08:47:38.913Z,35.1
2018-06-18T08:48:38.944Z,35
2018-06-18T08:49:39.006Z,35.2
2018-06-18T08:50:39.183Z,35.9
2018-06-18T08:51:39.196Z,36.2
2018-06-18T08:52:39.281Z,36.9
2018-06-18T08:53:39.392Z,37
2018-06-18T08:54:39.513Z,36.7
2018-06-18T08:57:39.753Z,36.5
2018-06-18T08:58:39.882Z,36.2
2018-06-18T09:01:40.083Z,36
2018-06-18T09:02:40.199Z,35.6
2018-06-18T09:03:40.296Z,35.5
2018-06-18T09:04:40.333Z,35.4
2018-06-18T09:05:40.388Z,35.1
2018-06-18T09:06:40.475Z,35.2
2018-06-18T09:07:40.571Z,36.4
2018-06-18T09:09:40.734Z,36.5
2018-06-18T09:10:40.835Z,36.2
2018-06-18T09:11:40.896Z,35.9
2018-06-18T09:12:41.002Z,36
2018-06-18T09:13:41.117Z,36.1
2018-06-18T09:14:41.167Z,35.2
2018-06-18T09:15:41.343Z,34.5
2018-06-18T09:16:41.364Z,33.9
2018-06-18T09:17:41.481Z,33.4
2018-06-18T09:18:41.536Z,33
2018-06-18T09:20:41.675Z,33.4
2018-06-18T09:21:41.816Z,33.7
2018-06-18T09:22:41.854Z,34
2018-06-18T09:23:42.012Z,34.1
2018-06-18T09:24:42.010Z,34.9
2018-06-18T09:25:42.106Z,35.9
2018-06-18T09:26:42.195Z,36.5
2018-06-18T09:28:42.457Z,36.1
2018-06-18T09:29:42.471Z,35.5
2018-06-18T09:30:42.619Z,35
2018-06-18T09:31:42.767Z,34.6
2018-06-18T09:32:42.874Z,34.2
2018-06-18T09:33:42.863Z,33.9
2018-06-18T09:34:42.914Z,33.6
2018-06-18T09:35:43.065Z,33.5
2018-06-18T09:36:43.449Z,33.4
2018-06-18T09:39:43.346Z,33.6
2018-06-18T09:40:43.449Z,33.7
2018-06-18T09:41:43.549Z,33.9
2018-06-18T09:42:43.652Z,33.7
2018-06-18T09:44:43.759Z,33.6
2018-06-18T09:45:43.901Z,33.5
2018-06-18T09:46:43.950Z,33.4
2018-06-18T09:48:44.153Z,33.2
2018-06-18T09:49:44.227Z,33.4
2018-06-18T09:50:44.276Z,33.7
2018-06-18T09:51:44.374Z,34
2018-06-18T09:52:44.500Z,34.2
2018-06-18T09:53:44.517Z,34.1
2018-06-18T09:55:44.821Z,34.2
2018-06-18T09:56:44.881Z,34.5
2018-06-18T09:57:44.904Z,34.7
2018-06-18T09:58:44.983Z,35
2018-06-18T09:59:45.062Z,35.6
2018-06-18T10:00:45.198Z,36.6
2018-06-18T10:01:45.282Z,37.4
2018-06-18T10:02:45.641Z,37.9
2018-06-18T10:03:45.621Z,37.7
2018-06-18T10:04:45.542Z,37.4
2018-06-18T10:05:45.707Z,37
2018-06-18T10:06:45.744Z,36.5
2018-06-18T10:07:45.789Z,36.1
2018-06-18T10:08:45.920Z,35.9
2018-06-18T10:09:45.997Z,35.6
2018-06-18T10:10:46.158Z,35.5
2018-06-18T10:11:46.174Z,35.4
2018-06-18T10:12:46.225Z,35.2
2018-06-18T10:14:46.440Z,35.1
2018-06-18T10:15:46.530Z,35
2018-06-18T10:16:46.548Z,34.9
2018-06-18T10:17:46.651Z,34.6
2018-06-18T10:18:46.743Z,34.4
2018-06-18T10:19:46.822Z,34
2018-06-18T10:20:46.909Z,33.5
2018-06-18T10:21:46.998Z,33.1
2018-06-18T10:22:47.164Z,32.9
2018-06-18T10:23:47.581Z,32.5
2018-06-18T10:24:47.307Z,32.4
2018-06-18T10:26:47.450Z,32.2
2018-06-18T10:27:47.535Z,32.4
2018-06-18T10:29:47.747Z,32.5
2018-06-18T10:30:47.809Z,32.6
2018-06-18T10:31:47.901Z,32.7
2018-06-18T10:33:48.065Z,32.6
2018-06-18T10:34:48.157Z,32.9
2018-06-18T10:35:48.276Z,33.4
2018-06-18T10:36:48.394Z,34
2018-06-18T10:37:48.493Z,34.6
2018-06-18T10:38:48.557Z,35.4
2018-06-18T10:39:48.653Z,36.1
2018-06-18T10:40:48.753Z,36.2
2018-06-18T10:41:49.280Z,36
2018-06-18T10:42:48.927Z,35.9
2018-06-18T10:43:49.045Z,36
2018-06-18T10:44:49.135Z,36.6
2018-06-18T10:46:49.281Z,36.9
2018-06-18T10:47:49.360Z,36.7
2018-06-18T10:48:49.429Z,36.6
2018-06-18T10:49:49.580Z,36.5
2018-06-18T10:50:49.667Z,36.2
2018-06-18T10:51:49.732Z,36.1
2018-06-18T10:52:49.775Z,35.9
2018-06-18T10:53:49.805Z,35.5
2018-06-18T10:54:49.867Z,34.9
2018-06-18T10:55:49.879Z,34.4
2018-06-18T10:56:49.919Z,34
2018-06-18T10:57:49.966Z,33.7
2018-06-18T10:58:50.054Z,33.9
2018-06-18T10:59:50.468Z,34
2018-06-18T11:00:50.098Z,34.4
2018-06-18T11:01:50.187Z,35.4
2018-06-18T11:02:50.219Z,35.9
2018-06-18T11:03:50.271Z,36
2018-06-18T11:04:50.320Z,36.4
2018-06-18T11:05:50.317Z,36.7
2018-06-18T11:07:50.519Z,36.5
2018-06-18T11:08:50.611Z,36.2
2018-06-18T11:09:50.617Z,36.1
2018-06-18T11:10:50.592Z,36.2
2018-06-18T11:11:50.638Z,37.7
2018-06-18T11:12:50.718Z,37.4
2018-06-18T11:13:50.760Z,37
2018-06-18T11:14:50.738Z,36.7
2018-06-18T11:15:50.849Z,36.4
2018-06-18T11:16:51.109Z,36.6
2018-06-18T11:17:50.853Z,37
2018-06-18T11:18:50.898Z,38.1
2018-06-18T11:19:50.930Z,38.4
2018-06-18T11:20:50.970Z,38.9
2018-06-18T11:21:51.116Z,39.4
2018-06-18T11:23:51.093Z,39.2
2018-06-18T11:24:51.161Z,39.4
2018-06-18T11:25:51.361Z,39
2018-06-18T11:26:51.383Z,38.6
2018-06-18T11:28:51.423Z,38.9
2018-06-18T11:29:51.429Z,39.1
2018-06-18T11:31:51.497Z,38.6
2018-06-18T11:32:51.511Z,38.4
2018-06-18T11:34:51.594Z,38.6
2018-06-18T11:35:51.736Z,38.7
2018-06-18T11:36:51.777Z,40
2018-06-18T11:37:53.092Z,40.8
2018-06-18T11:38:51.779Z,40.2
2018-06-18T11:39:51.834Z,40.1
2018-06-18T11:40:51.869Z,40.5
2018-06-18T11:41:52.019Z,40.1
2018-06-18T11:42:51.976Z,39.9
2018-06-18T11:43:52.048Z,39.6
2018-06-18T11:44:52.049Z,40.2
2018-06-18T11:46:52.125Z,40
2018-06-18T11:47:52.133Z,39.5
2018-06-18T11:48:52.162Z,39.6
2018-06-18T11:49:52.207Z,40.5
2018-06-18T11:50:52.270Z,41.6
2018-06-18T11:51:52.290Z,42
2018-06-18T11:52:52.330Z,43.6
2018-06-18T11:53:52.380Z,43.5
2018-06-18T11:54:52.446Z,42.9
2018-06-18T11:55:52.468Z,42.4
2018-06-18T11:56:52.524Z,41.6
2018-06-18T11:57:52.579Z,41.2
2018-06-18T11:58:52.546Z,41
2018-06-18T12:00:52.666Z,40.6
2018-06-18T12:01:52.669Z,40.2
2018-06-18T12:03:52.816Z,40
2018-06-18T12:04:52.824Z,40.4
2018-06-18T12:05:52.813Z,42
2018-06-18T12:06:52.848Z,42.4
2018-06-18T12:07:52.898Z,42.6
2018-06-18T12:08:52.935Z,42.4
2018-06-18T12:09:52.988Z,42.5
2018-06-18T12:10:53.076Z,41.5
2018-06-18T12:11:53.045Z,40.6
2018-06-18T12:12:53.122Z,40.2
2018-06-18T12:13:53.162Z,40.8
2018-06-18T12:14:53.227Z,41
2018-06-18T12:15:53.342Z,41.5
2018-06-18T12:16:53.313Z,41.9
2018-06-18T12:17:53.329Z,42.5
2018-06-18T12:18:53.328Z,42.1
2018-06-18T12:19:53.453Z,41.2
2018-06-18T12:20:53.490Z,40.4
2018-06-18T12:21:53.511Z,40.2
2018-06-18T12:22:53.490Z,40
2018-06-18T12:24:53.630Z,39.6
2018-06-18T12:25:53.607Z,39.9
2018-06-18T12:26:53.670Z,39.1
2018-06-18T12:27:53.685Z,38.6
2018-06-18T12:28:53.752Z,38
2018-06-18T12:29:53.790Z,37.4
2018-06-18T12:30:53.830Z,37
2018-06-18T12:34:54.045Z,36.9
2018-06-18T12:36:54.054Z,36.6
2018-06-18T12:38:54.188Z,37.6
2018-06-18T12:39:54.235Z,37.7
2018-06-18T12:40:54.225Z,37.6
2018-06-18T12:41:54.288Z,37.4
2018-06-18T12:42:54.357Z,37
2018-06-18T12:43:54.421Z,36.7
2018-06-18T12:44:54.420Z,36.5
2018-06-18T12:45:54.506Z,36.6
2018-06-18T12:46:54.524Z,36.9
2018-06-18T12:47:54.603Z,37.2
2018-06-18T12:48:54.619Z,37.6
2018-06-18T12:49:54.616Z,37.7
2018-06-18T12:50:54.672Z,38.1
2018-06-18T12:51:54.733Z,38.6
2018-06-18T12:52:54.784Z,39.1
2018-06-18T12:53:54.808Z,39.6
2018-06-18T12:54:54.820Z,39.5
2018-06-18T12:56:54.887Z,39.2
2018-06-18T12:57:54.940Z,39.1
2018-06-18T12:58:54.983Z,39
2018-06-18T12:59:55.047Z,39.1
2018-06-18T13:00:55.043Z,38.9
2018-06-18T13:01:55.150Z,38.4
2018-06-18T13:02:55.188Z,37.9
2018-06-18T13:03:55.233Z,37.2
2018-06-18T13:04:55.218Z,36.6
2018-06-18T13:05:55.322Z,36.2
2018-06-18T13:06:55.297Z,36
2018-06-18T13:07:55.402Z,35.9
2018-06-18T13:08:55.428Z,35.5
2018-06-18T13:09:55.444Z,35.1
2018-06-18T13:10:55.490Z,34.6
2018-06-18T13:11:55.867Z,34.1
2018-06-18T13:12:55.585Z,33.6
2018-06-18T13:13:55.578Z,33.2
2018-06-18T13:14:55.606Z,32.9
2018-06-18T13:15:55.710Z,32.5
2018-06-18T13:16:55.718Z,32.2
2018-06-18T13:17:55.739Z,32
2018-06-18T13:20:55.895Z,32.4
2018-06-18T13:21:55.945Z,32.9
2018-06-18T13:22:55.998Z,33.4
2018-06-18T13:23:56.014Z,33.9
2018-06-18T13:24:56.038Z,34.1
2018-06-18T13:25:56.090Z,34.5
2018-06-18T13:26:56.172Z,35.2
2018-06-18T13:27:56.213Z,35.9
2018-06-18T13:28:56.233Z,36
2018-06-18T13:30:56.337Z,35.9
2018-06-18T13:31:56.886Z,35.6
2018-06-18T13:32:56.421Z,35.5
2018-06-18T13:33:56.473Z,35.2
2018-06-18T13:34:56.494Z,35
2018-06-18T13:36:56.566Z,35.1
2018-06-18T13:37:56.613Z,35.5
2018-06-18T13:38:56.620Z,36.2
2018-06-18T13:39:56.698Z,36.7
2018-06-18T13:40:56.732Z,37.1
2018-06-18T13:41:56.746Z,38
2018-06-18T13:42:56.785Z,39.2
2018-06-18T13:43:56.825Z,40.4
2018-06-18T13:44:56.871Z,41.2
2018-06-18T13:45:57.387Z,42
2018-06-18T13:46:56.956Z,44
2018-06-18T13:47:57.050Z,43.9
2018-06-18T13:48:57.048Z,43.4
2018-06-18T13:49:57.085Z,43.1
2018-06-18T13:51:57.241Z,42.7
2018-06-18T13:52:57.236Z,42.6
2018-06-18T13:53:57.299Z,42.5
2018-06-18T13:54:57.375Z,41.7
2018-06-18T13:55:57.436Z,42.1
2018-06-18T13:56:57.428Z,42.2
2018-06-18T13:58:57.551Z,42.7
2018-06-18T13:59:57.567Z,43.5
2018-06-18T14:00:58.308Z,44.5
2018-06-18T14:01:57.662Z,43
2018-06-18T14:02:57.681Z,41.2
2018-06-18T14:03:57.744Z,40.8
2018-06-18T14:04:57.784Z,39.6
2018-06-18T14:05:57.798Z,38.4
2018-06-18T14:06:57.835Z,37.5
2018-06-18T14:07:57.920Z,36.6
2018-06-18T14:08:57.924Z,36.4
2018-06-18T14:09:58.309Z,36.5
2018-06-18T14:10:58.070Z,38.2
2018-06-18T14:11:58.127Z,38
2018-06-18T14:12:58.150Z,37.9
2018-06-18T14:13:58.154Z,38.9
2018-06-18T14:14:58.215Z,38.5
2018-06-18T14:15:58.248Z,38.7
2018-06-18T14:16:58.324Z,38.5
2018-06-18T14:17:58.331Z,38.9
2018-06-18T14:18:58.353Z,39.7
2018-06-18T14:19:58.383Z,41
2018-06-18T14:20:58.467Z,40.2
2018-06-18T14:21:58.499Z,40.5
2018-06-18T14:22:58.547Z,42.1
2018-06-18T14:23:58.548Z,43.5
2018-06-18T14:24:58.614Z,44.5
2018-06-18T14:25:58.626Z,45.2
2018-06-18T14:26:58.636Z,46
2018-06-18T14:27:58.696Z,46.6
2018-06-18T14:28:58.749Z,47.1
2018-06-18T14:29:58.828Z,47.4
2018-06-18T14:30:58.793Z,47.7
2018-06-18T14:33:58.966Z,46.9
2018-06-18T14:34:59.012Z,44.7
2018-06-18T14:35:59.063Z,43.1
2018-06-18T14:36:59.063Z,43
2018-06-18T14:37:59.127Z,44.4
2018-06-18T14:38:59.176Z,44.7
2018-06-18T14:39:59.190Z,45.8
2018-06-18T14:40:59.246Z,46.5
2018-06-18T14:41:59.357Z,44.6
2018-06-18T14:42:59.340Z,42.6
2018-06-18T14:43:59.377Z,42.2
2018-06-18T14:44:59.401Z,40.9
2018-06-18T14:45:59.550Z,41.2
2018-06-18T14:46:59.503Z,41.9
2018-06-18T14:47:59.532Z,42
2018-06-18T14:48:59.622Z,42.6
2018-06-18T14:49:59.634Z,43.1
2018-06-18T14:50:59.677Z,43.9
2018-06-18T14:51:59.715Z,43.7
2018-06-18T14:52:59.733Z,43.9
2018-06-18T14:53:59.783Z,44.4
2018-06-18T14:54:59.800Z,45.1
2018-06-18T14:55:59.904Z,45.8
2018-06-18T14:56:59.897Z,46
2018-06-18T14:57:59.925Z,46.2
2018-06-18T14:58:59.999Z,43.9
2018-06-18T15:00:00.182Z,42.5
2018-06-18T15:01:00.104Z,41.4
2018-06-18T15:02:00.184Z,39.5
2018-06-18T15:03:00.193Z,37.9
2018-06-18T15:04:00.222Z,36.6
2018-06-18T15:05:00.971Z,35.7
2018-06-18T15:06:01.192Z,34.9
2018-06-18T15:07:01.199Z,34.2
2018-06-18T15:08:00.880Z,34.5
2018-06-18T15:09:01.560Z,34.9
2018-06-18T15:11:01.490Z,35.4
2018-06-18T15:12:00.866Z,36.6
2018-06-18T15:13:01.175Z,38.2
2018-06-18T15:14:01.379Z,38.1
2018-06-18T15:15:01.522Z,37
2018-06-18T15:16:01.744Z,38
2018-06-18T15:17:01.566Z,39.5
2018-06-18T15:18:01.632Z,40
2018-06-18T15:19:00.838Z,39.2
2018-06-18T15:20:01.073Z,38.4
2018-06-18T15:21:01.459Z,38.7
2018-06-18T15:22:00.961Z,38.1
2018-06-18T15:23:01.604Z,38.4
2018-06-18T15:24:01.506Z,38.7
2018-06-18T15:25:01.801Z,39.4
2018-06-18T15:26:01.170Z,40.5
2018-06-18T15:27:01.268Z,40.2
2018-06-18T15:28:01.445Z,40.8
2018-06-18T15:29:01.243Z,41.4
2018-06-18T15:30:01.632Z,41.9
2018-06-18T15:32:01.723Z,41.1
2018-06-18T15:33:01.607Z,39.9
2018-06-18T15:34:01.484Z,39.5
2018-06-18T15:35:02.129Z,38.2
2018-06-18T15:36:01.594Z,37.7
2018-06-18T15:37:01.631Z,38.4
2018-06-18T15:38:02.388Z,37.7
2018-06-18T15:40:01.795Z,38.2
2018-06-18T15:41:01.840Z,37.5
2018-06-18T15:42:01.873Z,36.6
2018-06-18T15:43:02.454Z,35.6
2018-06-18T15:45:02.005Z,34.7
2018-06-18T15:46:02.144Z,34.1
2018-06-18T15:47:02.122Z,33.7
2018-06-18T15:48:02.127Z,33.2
2018-06-18T15:49:02.160Z,33.5
2018-06-18T15:50:02.264Z,34.4
2018-06-18T15:51:02.309Z,34.9
2018-06-18T15:52:02.360Z,34.5
2018-06-18T15:53:02.420Z,33.9
2018-06-18T15:54:02.390Z,33.2
2018-06-18T15:55:02.470Z,32.7
2018-06-18T15:56:02.553Z,32.2
2018-06-18T15:57:02.717Z,31.8
2018-06-18T15:58:02.626Z,31.4
2018-06-18T15:59:02.644Z,31
2018-06-18T16:00:02.697Z,30.8
2018-06-18T16:01:02.713Z,30.5
2018-06-18T16:02:02.761Z,30.4
2018-06-18T16:03:02.805Z,30.3
2018-06-18T16:04:02.839Z,30
2018-06-18T16:05:02.865Z,29.8
2018-06-18T16:08:03.016Z,29.6
2018-06-18T16:09:03.127Z,29.4
2018-06-18T16:10:03.083Z,29.1
2018-06-18T16:11:03.126Z,28.7
2018-06-18T16:12:03.187Z,28.5
2018-06-18T16:13:03.227Z,28.3
2018-06-18T16:14:03.270Z,28.1
2018-06-18T16:17:03.437Z,28
2018-06-18T16:18:03.491Z,28.1
2018-06-18T16:20:03.575Z,28.3
2018-06-18T16:25:03.836Z,28.6
2018-06-18T16:26:03.843Z,28.9
2018-06-18T16:27:03.905Z,29.6
2018-06-18T16:28:03.935Z,30.1
2018-06-18T16:29:03.974Z,30.5
2018-06-18T16:30:04.028Z,31.8
2018-06-18T16:31:04.059Z,33
2018-06-18T16:33:04.183Z,32.5
2018-06-18T16:34:04.231Z,31.9
2018-06-18T16:35:04.265Z,31.2
2018-06-18T16:36:04.273Z,30.8
2018-06-18T16:37:04.354Z,30.4
2018-06-18T16:38:04.418Z,30
2018-06-18T16:39:04.449Z,29.6
2018-06-18T16:40:04.495Z,29.4
2018-06-18T16:41:04.513Z,29.1
2018-06-18T16:42:04.532Z,28.9
2018-06-18T16:43:04.623Z,28.6
2018-06-18T16:44:04.627Z,28.3
2018-06-18T16:45:04.741Z,28
2018-06-18T16:46:04.762Z,27.8
2018-06-18T16:47:04.739Z,27.5
2018-06-18T16:48:04.769Z,27.4
2018-06-18T16:49:04.825Z,27.1
2018-06-18T16:51:04.891Z,27
2018-06-18T16:52:04.937Z,26.9
2018-06-18T16:53:04.974Z,26.8
2018-06-18T16:54:05.011Z,26.6
2018-06-18T16:56:05.121Z,26.5
2018-06-18T16:58:05.193Z,26.4
2018-06-18T16:59:05.278Z,26.2
2018-06-18T17:01:05.338Z,26.1
2018-06-18T17:02:05.390Z,26
2018-06-18T17:03:05.417Z,25.9
2018-06-18T17:04:05.486Z,25.8
2018-06-18T17:05:05.470Z,25.6
2018-06-18T17:06:05.557Z,25.5
2018-06-18T17:07:05.617Z,25.4
2018-06-18T17:08:05.649Z,25.3
2018-06-18T17:11:05.744Z,25.1
2018-06-18T17:13:05.825Z,25
2018-06-18T17:15:05.889Z,24.9
2018-06-18T17:17:05.972Z,24.7
2018-06-18T17:21:06.138Z,24.6
2018-06-18T17:27:06.455Z,24.5
2018-06-18T17:29:06.527Z,24.4
2018-06-18T17:32:06.657Z,24.3
2018-06-18T17:33:06.687Z,24.1
2018-06-18T17:34:06.741Z,24
2018-06-18T17:36:06.776Z,23.9
2018-06-18T17:38:06.968Z,23.7
2018-06-18T17:40:06.955Z,23.6
2018-06-18T17:41:07.001Z,23.5
2018-06-18T17:43:07.109Z,23.4
2018-06-18T17:45:07.131Z,23.3
2018-06-18T17:48:07.358Z,23.1
2018-06-18T17:53:07.580Z,23
2018-06-18T18:08:08.143Z,22.9
2018-06-18T18:14:21.743Z,22.8
2018-06-18T18:19:22.201Z,22.6
2018-06-18T18:22:22.341Z,22.5
2018-06-18T18:24:22.497Z,22.4
2018-06-18T18:27:22.699Z,22.2
2018-06-18T18:29:22.903Z,22.1
2018-06-18T18:31:23.063Z,22
2018-06-18T18:33:23.226Z,21.9
2018-06-18T18:35:23.374Z,21.8
2018-06-18T18:36:23.438Z,21.6
2018-06-18T18:37:23.525Z,21.5
2018-06-18T18:38:23.588Z,21.4
2018-06-18T18:39:23.735Z,21.1
2018-06-18T18:40:23.673Z,21
2018-06-18T18:41:23.810Z,20.8
2018-06-18T18:42:23.824Z,20.5
2018-06-18T18:43:23.945Z,20.3
2018-06-18T18:44:23.977Z,20
2018-06-18T18:45:24.135Z,19.9
2018-06-18T18:46:24.182Z,19.6
2018-06-18T18:47:24.260Z,19.5
2018-06-18T18:48:24.285Z,19.4
2018-06-18T18:50:24.470Z,19.3
2018-06-18T18:52:24.614Z,19.1
2018-06-18T18:55:24.850Z,19
2018-06-18T18:59:25.169Z,18.9
2018-06-18T19:00:25.460Z,19
2018-06-18T19:01:25.278Z,18.9
2018-06-18T19:09:25.928Z,18.8
2018-06-18T19:10:25.945Z,18.6
2018-06-18T19:11:26.122Z,18.5
2018-06-18T19:13:26.206Z,18.4
2018-06-18T19:14:26.218Z,18.3
2018-06-18T19:16:26.427Z,18.1
2018-06-18T19:20:26.720Z,18
2018-06-18T19:26:27.168Z,18.1
2018-06-18T19:43:28.394Z,18.3
2018-06-18T19:56:29.427Z,18.4
2018-06-18T20:04:29.914Z,18.5
2018-06-18T20:05:29.991Z,18.4
2018-06-18T20:06:30.100Z,18.5
2018-06-18T20:10:30.393Z,18.6
2018-06-18T20:18:30.992Z,18.8
2018-06-18T20:32:31.906Z,18.9
2018-06-18T20:33:31.991Z,18.8
2018-06-18T20:35:32.203Z,18.9
2018-06-18T20:36:32.273Z,18.8
2018-06-18T20:47:33.046Z,18.6
2018-06-18T20:52:33.454Z,18.5
2018-06-18T20:58:33.942Z,18.4
2018-06-18T21:03:34.257Z,18.3
2018-06-18T21:07:34.603Z,18.1
2018-06-18T21:15:35.111Z,18
2018-06-18T21:36:36.715Z,17.9
2018-06-18T21:44:37.300Z,17.8
2018-06-18T21:54:38.007Z,17.6
2018-06-18T21:57:38.354Z,17.5
2018-06-18T21:59:38.417Z,17.6
2018-06-18T22:00:38.533Z,17.5
2018-06-18T22:04:38.800Z,17.6
2018-06-18T22:05:38.842Z,17.5
2018-06-18T22:06:38.925Z,17.6
2018-06-18T22:11:39.295Z,17.5
2018-06-18T22:32:40.863Z,17.4
2018-06-18T22:37:41.264Z,17.2
2018-06-18T22:59:42.886Z,17.4
2018-06-18T23:04:43.232Z,17.5
2018-06-18T23:05:43.331Z,17.4
2018-06-18T23:06:43.351Z,17.5
2018-06-18T23:10:43.625Z,17.6
2018-06-18T23:16:44.101Z,17.8
2018-06-18T23:22:44.543Z,17.9
2018-06-18T23:27:44.867Z,18
2018-06-18T23:35:45.534Z,18.1
2018-06-18T23:46:46.524Z,18.3
2018-06-18T23:47:46.347Z,18.1
2018-06-18T23:48:46.401Z,18.3
2018-06-18T23:50:46.559Z,18.1
2018-06-18T23:51:46.633Z,18.3
2018-06-18T23:52:46.683Z,18.1
2018-06-18T23:55:46.914Z,18.3
2018-06-18T23:56:46.983Z,18.1
